sensor_id;sensor_type;location;lat;lon;timestamp;P1;durP1;ratioP1;P2;durP2;ratioP2
39156;SDS011;24889;42.424;25.604;2022-09-03T00:00:59;21.73;;;11.20;;
39156;SDS011;24889;42.424;25.604;2022-09-03T00:03:30;14.48;;;10.65;;
39156;SDS011;24889;42.424;25.604;2022-09-03T00:06:24;13.13;;;10.93;;
39156;SDS011;24889;42.424;25.604;2022-09-03T00:09:04;23.67;;;11.68;;
39156;SDS011;24889;42.424;25.604;2022-09-03T00:14:18;12.90;;;11.32;;
39156;SDS011;24889;42.424;25.604;2022-09-03T00:16:49;15.35;;;10.75;;
39156;SDS011;24889;42.424;25.604;2022-09-03T00:19:19;17.65;;;11.57;;
39156;SDS011;24889;42.424;25.604;2022-09-03T00:21:50;13.75;;;11.05;;
39156;SDS011;24889;42.424;25.604;2022-09-03T00:24:22;18.40;;;12.32;;
39156;SDS011;24889;42.424;25.604;2022-09-03T00:26:53;20.60;;;12.80;;
39156;SDS011;24889;42.424;25.604;2022-09-03T00:29:24;14.15;;;11.68;;
39156;SDS011;24889;42.424;25.604;2022-09-03T00:31:57;19.38;;;12.68;;
39156;SDS011;24889;42.424;25.604;2022-09-03T00:34:34;16.98;;;13.10;;
39156;SDS011;24889;42.424;25.604;2022-09-03T00:37:06;15.35;;;13.45;;
39156;SDS011;24889;42.424;25.604;2022-09-03T00:39:32;16.27;;;11.93;;
39156;SDS011;24889;42.424;25.604;2022-09-03T00:47:33;14.55;;;11.43;;
39156;SDS011;24889;42.424;25.604;2022-09-03T00:55:57;13.63;;;10.93;;
39156;SDS011;24889;42.424;25.604;2022-09-03T01:00:57;14.40;;;10.10;;
39156;SDS011;24889;42.424;25.604;2022-09-03T01:06:23;17.85;;;10.30;;
39156;SDS011;24889;42.424;25.604;2022-09-03T01:11:33;13.90;;;10.88;;
39156;SDS011;24889;42.424;25.604;2022-09-03T01:16:57;14.20;;;10.80;;
39156;SDS011;24889;42.424;25.604;2022-09-03T01:19:52;12.82;;;10.63;;
39156;SDS011;24889;42.424;25.604;2022-09-03T01:31:05;12.80;;;10.85;;
39156;SDS011;24889;42.424;25.604;2022-09-03T01:34:12;13.80;;;9.98;;
39156;SDS011;24889;42.424;25.604;2022-09-03T01:39:16;15.77;;;10.98;;
39156;SDS011;24889;42.424;25.604;2022-09-03T01:44:41;13.68;;;10.30;;
39156;SDS011;24889;42.424;25.604;2022-09-03T01:47:15;13.07;;;10.13;;
39156;SDS011;24889;42.424;25.604;2022-09-03T01:49:55;12.65;;;10.93;;
39156;SDS011;24889;42.424;25.604;2022-09-03T01:52:47;14.65;;;10.65;;
39156;SDS011;24889;42.424;25.604;2022-09-03T01:58:01;14.75;;;11.60;;
39156;SDS011;24889;42.424;25.604;2022-09-03T02:00:33;14.05;;;10.75;;
39156;SDS011;24889;42.424;25.604;2022-09-03T02:03:03;12.73;;;10.93;;
39156;SDS011;24889;42.424;25.604;2022-09-03T02:05:34;14.93;;;11.45;;
39156;SDS011;24889;42.424;25.604;2022-09-03T02:08:04;14.23;;;10.15;;
39156;SDS011;24889;42.424;25.604;2022-09-03T02:10:33;12.93;;;10.82;;
39156;SDS011;24889;42.424;25.604;2022-09-03T02:15:39;15.43;;;11.07;;
39156;SDS011;24889;42.424;25.604;2022-09-03T02:18:12;14.15;;;11.07;;
39156;SDS011;24889;42.424;25.604;2022-09-03T02:20:42;14.18;;;10.45;;
39156;SDS011;24889;42.424;25.604;2022-09-03T02:23:10;13.60;;;10.50;;
39156;SDS011;24889;42.424;25.604;2022-09-03T02:25:39;16.50;;;11.02;;
39156;SDS011;24889;42.424;25.604;2022-09-03T02:28:08;13.32;;;10.95;;
39156;SDS011;24889;42.424;25.604;2022-09-03T02:30:34;12.50;;;10.48;;
39156;SDS011;24889;42.424;25.604;2022-09-03T02:33:00;13.70;;;10.68;;
39156;SDS011;24889;42.424;25.604;2022-09-03T02:35:26;14.68;;;10.85;;
39156;SDS011;24889;42.424;25.604;2022-09-03T02:37:52;17.38;;;10.82;;
39156;SDS011;24889;42.424;25.604;2022-09-03T02:40:17;15.57;;;10.43;;
39156;SDS011;24889;42.424;25.604;2022-09-03T02:42:43;14.18;;;10.40;;
39156;SDS011;24889;42.424;25.604;2022-09-03T02:47:54;13.45;;;8.88;;
39156;SDS011;24889;42.424;25.604;2022-09-03T02:50:22;9.70;;;8.60;;
39156;SDS011;24889;42.424;25.604;2022-09-03T02:52:48;11.48;;;8.60;;
39156;SDS011;24889;42.424;25.604;2022-09-03T02:55:14;11.20;;;9.52;;
39156;SDS011;24889;42.424;25.604;2022-09-03T02:57:40;17.42;;;10.95;;
39156;SDS011;24889;42.424;25.604;2022-09-03T03:00:06;14.85;;;9.85;;
39156;SDS011;24889;42.424;25.604;2022-09-03T03:02:32;12.30;;;9.20;;
39156;SDS011;24889;42.424;25.604;2022-09-03T03:04:58;14.63;;;10.05;;
39156;SDS011;24889;42.424;25.604;2022-09-03T03:07:23;18.00;;;9.77;;
39156;SDS011;24889;42.424;25.604;2022-09-03T03:09:50;11.35;;;9.40;;
39156;SDS011;24889;42.424;25.604;2022-09-03T03:12:16;15.43;;;8.75;;
39156;SDS011;24889;42.424;25.604;2022-09-03T03:14:42;16.02;;;8.35;;
39156;SDS011;24889;42.424;25.604;2022-09-03T03:17:07;12.63;;;8.55;;
39156;SDS011;24889;42.424;25.604;2022-09-03T03:19:33;11.35;;;9.07;;
39156;SDS011;24889;42.424;25.604;2022-09-03T03:21:59;12.50;;;10.13;;
39156;SDS011;24889;42.424;25.604;2022-09-03T03:24:24;14.65;;;9.32;;
39156;SDS011;24889;42.424;25.604;2022-09-03T03:26:50;14.30;;;8.63;;
39156;SDS011;24889;42.424;25.604;2022-09-03T03:29:19;13.27;;;9.38;;
39156;SDS011;24889;42.424;25.604;2022-09-03T03:31:44;14.82;;;10.52;;
39156;SDS011;24889;42.424;25.604;2022-09-03T03:34:10;11.90;;;8.60;;
39156;SDS011;24889;42.424;25.604;2022-09-03T03:36:35;17.08;;;9.00;;
39156;SDS011;24889;42.424;25.604;2022-09-03T03:39:02;16.35;;;9.60;;
39156;SDS011;24889;42.424;25.604;2022-09-03T03:43:56;19.38;;;9.57;;
39156;SDS011;24889;42.424;25.604;2022-09-03T03:46:23;14.55;;;9.40;;
39156;SDS011;24889;42.424;25.604;2022-09-03T03:48:52;10.82;;;7.85;;
39156;SDS011;24889;42.424;25.604;2022-09-03T03:51:18;12.80;;;7.80;;
39156;SDS011;24889;42.424;25.604;2022-09-03T03:53:43;10.13;;;6.97;;
39156;SDS011;24889;42.424;25.604;2022-09-03T03:56:12;7.97;;;6.13;;
39156;SDS011;24889;42.424;25.604;2022-09-03T03:58:39;22.35;;;8.93;;
39156;SDS011;24889;42.424;25.604;2022-09-03T04:01:09;9.82;;;7.68;;
39156;SDS011;24889;42.424;25.604;2022-09-03T04:03:36;10.02;;;7.90;;
39156;SDS011;24889;42.424;25.604;2022-09-03T04:06:02;9.55;;;6.75;;
39156;SDS011;24889;42.424;25.604;2022-09-03T04:08:29;11.43;;;8.13;;
39156;SDS011;24889;42.424;25.604;2022-09-03T04:10:58;12.68;;;7.65;;
39156;SDS011;24889;42.424;25.604;2022-09-03T04:13:28;8.23;;;7.03;;
39156;SDS011;24889;42.424;25.604;2022-09-03T04:16:00;15.63;;;7.20;;
39156;SDS011;24889;42.424;25.604;2022-09-03T04:18:30;10.88;;;6.40;;
39156;SDS011;24889;42.424;25.604;2022-09-03T04:23:33;8.48;;;7.03;;
39156;SDS011;24889;42.424;25.604;2022-09-03T04:26:00;7.45;;;5.22;;
39156;SDS011;24889;42.424;25.604;2022-09-03T04:28:26;7.75;;;5.30;;
39156;SDS011;24889;42.424;25.604;2022-09-03T04:30:52;10.15;;;5.57;;
39156;SDS011;24889;42.424;25.604;2022-09-03T04:33:18;7.65;;;5.90;;
39156;SDS011;24889;42.424;25.604;2022-09-03T04:35:43;9.77;;;5.40;;
39156;SDS011;24889;42.424;25.604;2022-09-03T04:38:09;12.57;;;6.22;;
39156;SDS011;24889;42.424;25.604;2022-09-03T04:40:35;8.30;;;4.20;;
39156;SDS011;24889;42.424;25.604;2022-09-03T04:43:01;7.10;;;4.35;;
39156;SDS011;24889;42.424;25.604;2022-09-03T04:45:27;6.93;;;3.42;;
39156;SDS011;24889;42.424;25.604;2022-09-03T04:48:01;7.07;;;4.75;;
39156;SDS011;24889;42.424;25.604;2022-09-03T04:50:30;6.70;;;4.30;;
39156;SDS011;24889;42.424;25.604;2022-09-03T04:53:00;5.20;;;3.80;;
39156;SDS011;24889;42.424;25.604;2022-09-03T04:55:27;9.10;;;3.92;;
39156;SDS011;24889;42.424;25.604;2022-09-03T05:00:18;7.43;;;3.90;;
39156;SDS011;24889;42.424;25.604;2022-09-03T05:02:44;9.55;;;3.97;;
39156;SDS011;24889;42.424;25.604;2022-09-03T05:05:12;35.03;;;18.70;;
39156;SDS011;24889;42.424;25.604;2022-09-03T05:07:38;26.92;;;17.10;;
39156;SDS011;24889;42.424;25.604;2022-09-03T05:10:08;17.58;;;12.20;;
39156;SDS011;24889;42.424;25.604;2022-09-03T05:12:37;6.72;;;4.13;;
39156;SDS011;24889;42.424;25.604;2022-09-03T05:15:03;6.65;;;3.63;;
39156;SDS011;24889;42.424;25.604;2022-09-03T05:17:29;6.15;;;3.03;;
39156;SDS011;24889;42.424;25.604;2022-09-03T05:19:55;5.82;;;3.47;;
39156;SDS011;24889;42.424;25.604;2022-09-03T05:22:21;5.05;;;3.80;;
39156;SDS011;24889;42.424;25.604;2022-09-03T05:24:47;15.27;;;4.07;;
39156;SDS011;24889;42.424;25.604;2022-09-03T05:27:13;6.10;;;3.45;;
39156;SDS011;24889;42.424;25.604;2022-09-03T05:29:43;7.63;;;4.85;;
39156;SDS011;24889;42.424;25.604;2022-09-03T05:32:09;5.95;;;3.55;;
39156;SDS011;24889;42.424;25.604;2022-09-03T05:34:35;6.30;;;3.85;;
39156;SDS011;24889;42.424;25.604;2022-09-03T05:39:26;7.53;;;4.23;;
39156;SDS011;24889;42.424;25.604;2022-09-03T05:41:51;4.13;;;3.65;;
39156;SDS011;24889;42.424;25.604;2022-09-03T05:44:17;6.15;;;4.07;;
39156;SDS011;24889;42.424;25.604;2022-09-03T05:46:43;6.20;;;4.88;;
39156;SDS011;24889;42.424;25.604;2022-09-03T05:49:08;6.18;;;4.63;;
39156;SDS011;24889;42.424;25.604;2022-09-03T05:51:35;8.60;;;5.03;;
39156;SDS011;24889;42.424;25.604;2022-09-03T05:54:03;10.65;;;4.78;;
39156;SDS011;24889;42.424;25.604;2022-09-03T05:56:30;5.60;;;4.70;;
39156;SDS011;24889;42.424;25.604;2022-09-03T05:58:58;5.97;;;4.60;;
39156;SDS011;24889;42.424;25.604;2022-09-03T06:01:26;4.35;;;3.95;;
39156;SDS011;24889;42.424;25.604;2022-09-03T06:03:56;5.55;;;4.65;;
39156;SDS011;24889;42.424;25.604;2022-09-03T06:06:24;10.38;;;4.25;;
39156;SDS011;24889;42.424;25.604;2022-09-03T06:08:54;5.38;;;4.05;;
39156;SDS011;24889;42.424;25.604;2022-09-03T06:11:22;5.00;;;3.78;;
39156;SDS011;24889;42.424;25.604;2022-09-03T06:13:56;4.45;;;3.08;;
39156;SDS011;24889;42.424;25.604;2022-09-03T06:16:24;13.43;;;3.95;;
39156;SDS011;24889;42.424;25.604;2022-09-03T06:21:15;4.63;;;3.88;;
39156;SDS011;24889;42.424;25.604;2022-09-03T06:23:41;6.28;;;3.33;;
39156;SDS011;24889;42.424;25.604;2022-09-03T06:28:34;5.22;;;3.45;;
39156;SDS011;24889;42.424;25.604;2022-09-03T06:31:05;6.45;;;3.13;;
39156;SDS011;24889;42.424;25.604;2022-09-03T06:33:32;3.88;;;2.70;;
39156;SDS011;24889;42.424;25.604;2022-09-03T06:36:00;4.07;;;2.67;;
39156;SDS011;24889;42.424;25.604;2022-09-03T06:38:29;5.63;;;2.45;;
39156;SDS011;24889;42.424;25.604;2022-09-03T06:41:05;3.70;;;2.40;;
39156;SDS011;24889;42.424;25.604;2022-09-03T06:43:56;3.20;;;2.20;;
39156;SDS011;24889;42.424;25.604;2022-09-03T06:46:32;4.22;;;2.50;;
39156;SDS011;24889;42.424;25.604;2022-09-03T06:48:59;3.78;;;2.78;;
39156;SDS011;24889;42.424;25.604;2022-09-03T06:51:26;4.63;;;2.50;;
39156;SDS011;24889;42.424;25.604;2022-09-03T06:53:57;3.80;;;2.60;;
39156;SDS011;24889;42.424;25.604;2022-09-03T06:56:24;2.83;;;1.88;;
39156;SDS011;24889;42.424;25.604;2022-09-03T06:58:51;4.70;;;2.53;;
39156;SDS011;24889;42.424;25.604;2022-09-03T07:01:20;2.70;;;2.00;;
39156;SDS011;24889;42.424;25.604;2022-09-03T07:03:51;2.78;;;2.00;;
39156;SDS011;24889;42.424;25.604;2022-09-03T07:06:22;4.55;;;2.40;;
39156;SDS011;24889;42.424;25.604;2022-09-03T07:08:49;11.65;;;8.35;;
39156;SDS011;24889;42.424;25.604;2022-09-03T07:13:42;7.10;;;4.80;;
39156;SDS011;24889;42.424;25.604;2022-09-03T07:16:12;5.70;;;4.30;;
39156;SDS011;24889;42.424;25.604;2022-09-03T07:18:42;2.40;;;1.90;;
39156;SDS011;24889;42.424;25.604;2022-09-03T07:23:36;3.35;;;2.10;;
39156;SDS011;24889;42.424;25.604;2022-09-03T07:26:06;6.32;;;2.30;;
39156;SDS011;24889;42.424;25.604;2022-09-03T07:28:38;3.80;;;2.20;;
39156;SDS011;24889;42.424;25.604;2022-09-03T07:31:06;5.18;;;3.60;;
39156;SDS011;24889;42.424;25.604;2022-09-03T07:33:52;10.73;;;4.32;;
39156;SDS011;24889;42.424;25.604;2022-09-03T07:36:26;11.55;;;4.65;;
39156;SDS011;24889;42.424;25.604;2022-09-03T07:38:57;2.50;;;1.90;;
39156;SDS011;24889;42.424;25.604;2022-09-03T07:41:23;4.35;;;2.17;;
39156;SDS011;24889;42.424;25.604;2022-09-03T07:43:51;3.20;;;1.70;;
39156;SDS011;24889;42.424;25.604;2022-09-03T07:46:18;3.38;;;2.30;;
39156;SDS011;24889;42.424;25.604;2022-09-03T07:48:51;3.13;;;1.88;;
39156;SDS011;24889;42.424;25.604;2022-09-03T07:51:18;1.75;;;1.63;;
39156;SDS011;24889;42.424;25.604;2022-09-03T07:53:46;3.65;;;2.25;;
39156;SDS011;24889;42.424;25.604;2022-09-03T07:56:13;3.13;;;2.38;;
39156;SDS011;24889;42.424;25.604;2022-09-03T07:58:39;7.60;;;1.95;;
39156;SDS011;24889;42.424;25.604;2022-09-03T08:01:39;2.70;;;1.42;;
39156;SDS011;24889;42.424;25.604;2022-09-03T08:03:58;2.58;;;1.83;;
39156;SDS011;24889;42.424;25.604;2022-09-03T08:06:26;2.65;;;1.80;;
39156;SDS011;24889;42.424;25.604;2022-09-03T08:08:55;2.25;;;1.50;;
39156;SDS011;24889;42.424;25.604;2022-09-03T08:11:24;2.10;;;1.42;;
39156;SDS011;24889;42.424;25.604;2022-09-03T08:13:57;2.08;;;1.50;;
39156;SDS011;24889;42.424;25.604;2022-09-03T08:16:30;1.95;;;1.45;;
39156;SDS011;24889;42.424;25.604;2022-09-03T08:18:58;3.92;;;1.65;;
39156;SDS011;24889;42.424;25.604;2022-09-03T08:23:50;1.42;;;1.25;;
39156;SDS011;24889;42.424;25.604;2022-09-03T08:26:18;2.17;;;1.55;;
39156;SDS011;24889;42.424;25.604;2022-09-03T08:28:44;3.58;;;1.65;;
39156;SDS011;24889;42.424;25.604;2022-09-03T08:31:20;4.18;;;1.83;;
39156;SDS011;24889;42.424;25.604;2022-09-03T08:33:48;2.05;;;1.50;;
39156;SDS011;24889;42.424;25.604;2022-09-03T08:36:24;2.30;;;1.55;;
39156;SDS011;24889;42.424;25.604;2022-09-03T08:38:51;2.28;;;1.65;;
39156;SDS011;24889;42.424;25.604;2022-09-03T08:41:23;2.42;;;1.85;;
39156;SDS011;24889;42.424;25.604;2022-09-03T08:46:56;5.32;;;1.90;;
39156;SDS011;24889;42.424;25.604;2022-09-03T08:49:47;2.13;;;1.65;;
39156;SDS011;24889;42.424;25.604;2022-09-03T08:55:36;3.08;;;2.13;;
39156;SDS011;24889;42.424;25.604;2022-09-03T09:00:48;4.78;;;2.42;;
39156;SDS011;24889;42.424;25.604;2022-09-03T09:06:29;3.85;;;2.22;;
39156;SDS011;24889;42.424;25.604;2022-09-03T09:17:48;2.90;;;2.40;;
39156;SDS011;24889;42.424;25.604;2022-09-03T09:20:25;5.68;;;2.75;;
39156;SDS011;24889;42.424;25.604;2022-09-03T09:23:04;3.33;;;2.22;;
39156;SDS011;24889;42.424;25.604;2022-09-03T09:25:31;4.82;;;2.25;;
39156;SDS011;24889;42.424;25.604;2022-09-03T09:28:28;3.78;;;2.28;;
39156;SDS011;24889;42.424;25.604;2022-09-03T09:30:59;3.25;;;2.47;;
39156;SDS011;24889;42.424;25.604;2022-09-03T09:33:28;6.43;;;2.97;;
39156;SDS011;24889;42.424;25.604;2022-09-03T09:35:55;3.03;;;2.53;;
39156;SDS011;24889;42.424;25.604;2022-09-03T09:38:30;3.70;;;2.28;;
39156;SDS011;24889;42.424;25.604;2022-09-03T09:43:39;7.35;;;2.75;;
39156;SDS011;24889;42.424;25.604;2022-09-03T09:46:06;4.10;;;2.55;;
39156;SDS011;24889;42.424;25.604;2022-09-03T09:48:37;4.47;;;2.70;;
39156;SDS011;24889;42.424;25.604;2022-09-03T09:51:17;5.55;;;2.78;;
39156;SDS011;24889;42.424;25.604;2022-09-03T09:53:47;3.88;;;2.30;;
39156;SDS011;24889;42.424;25.604;2022-09-03T09:56:26;4.95;;;2.60;;
39156;SDS011;24889;42.424;25.604;2022-09-03T10:01:31;4.82;;;2.45;;
39156;SDS011;24889;42.424;25.604;2022-09-03T10:03:59;3.60;;;2.50;;
39156;SDS011;24889;42.424;25.604;2022-09-03T10:06:32;5.18;;;2.80;;
39156;SDS011;24889;42.424;25.604;2022-09-03T10:11:51;3.25;;;2.30;;
39156;SDS011;24889;42.424;25.604;2022-09-03T10:14:33;4.30;;;2.88;;
39156;SDS011;24889;42.424;25.604;2022-09-03T10:17:04;7.53;;;3.35;;
39156;SDS011;24889;42.424;25.604;2022-09-03T10:22:58;4.40;;;2.63;;
39156;SDS011;24889;42.424;25.604;2022-09-03T10:25:33;2.85;;;2.10;;
39156;SDS011;24889;42.424;25.604;2022-09-03T10:28:04;3.22;;;2.50;;
39156;SDS011;24889;42.424;25.604;2022-09-03T10:30:37;3.42;;;2.20;;
39156;SDS011;24889;42.424;25.604;2022-09-03T10:33:34;6.38;;;2.60;;
39156;SDS011;24889;42.424;25.604;2022-09-03T10:36:10;3.88;;;2.65;;
39156;SDS011;24889;42.424;25.604;2022-09-03T10:38:43;4.05;;;2.60;;
39156;SDS011;24889;42.424;25.604;2022-09-03T10:46:39;4.07;;;2.70;;
39156;SDS011;24889;42.424;25.604;2022-09-03T10:49:30;4.03;;;2.85;;
39156;SDS011;24889;42.424;25.604;2022-09-03T10:52:09;7.88;;;4.15;;
39156;SDS011;24889;42.424;25.604;2022-09-03T11:00:51;4.30;;;3.28;;
39156;SDS011;24889;42.424;25.604;2022-09-03T11:03:26;4.45;;;3.00;;
39156;SDS011;24889;42.424;25.604;2022-09-03T11:06:17;4.95;;;3.80;;
39156;SDS011;24889;42.424;25.604;2022-09-03T11:09:15;3.97;;;3.35;;
39156;SDS011;24889;42.424;25.604;2022-09-03T11:12:10;5.00;;;3.50;;
39156;SDS011;24889;42.424;25.604;2022-09-03T11:15:34;5.57;;;3.92;;
39156;SDS011;24889;42.424;25.604;2022-09-03T11:17:50;5.32;;;2.95;;
39156;SDS011;24889;42.424;25.604;2022-09-03T11:20:21;6.10;;;3.55;;
39156;SDS011;24889;42.424;25.604;2022-09-03T11:22:50;9.20;;;3.45;;
39156;SDS011;24889;42.424;25.604;2022-09-03T11:25:21;4.30;;;3.38;;
39156;SDS011;24889;42.424;25.604;2022-09-03T11:30:51;6.68;;;3.55;;
39156;SDS011;24889;42.424;25.604;2022-09-03T11:33:30;4.90;;;3.40;;
39156;SDS011;24889;42.424;25.604;2022-09-03T11:36:04;5.75;;;4.20;;
39156;SDS011;24889;42.424;25.604;2022-09-03T11:38:30;7.75;;;3.95;;
39156;SDS011;24889;42.424;25.604;2022-09-03T11:51:55;4.38;;;3.67;;
39156;SDS011;24889;42.424;25.604;2022-09-03T11:53:57;6.93;;;3.40;;
39156;SDS011;24889;42.424;25.604;2022-09-03T11:56:29;8.32;;;3.35;;
39156;SDS011;24889;42.424;25.604;2022-09-03T11:59:00;6.10;;;3.83;;
39156;SDS011;24889;42.424;25.604;2022-09-03T12:01:45;4.97;;;3.20;;
39156;SDS011;24889;42.424;25.604;2022-09-03T12:07:29;4.75;;;3.63;;
39156;SDS011;24889;42.424;25.604;2022-09-03T12:18:25;4.22;;;2.97;;
39156;SDS011;24889;42.424;25.604;2022-09-03T12:26:02;5.05;;;3.60;;
39156;SDS011;24889;42.424;25.604;2022-09-03T12:28:34;4.90;;;3.17;;
39156;SDS011;24889;42.424;25.604;2022-09-03T12:31:09;7.53;;;3.92;;
39156;SDS011;24889;42.424;25.604;2022-09-03T12:33:47;7.27;;;4.33;;
39156;SDS011;24889;42.424;25.604;2022-09-03T12:36:15;5.40;;;3.83;;
39156;SDS011;24889;42.424;25.604;2022-09-03T12:38:42;3.47;;;2.80;;
39156;SDS011;24889;42.424;25.604;2022-09-03T12:43:51;7.13;;;2.80;;
39156;SDS011;24889;42.424;25.604;2022-09-03T12:46:21;6.35;;;4.05;;
39156;SDS011;24889;42.424;25.604;2022-09-03T12:48:57;5.57;;;4.13;;
39156;SDS011;24889;42.424;25.604;2022-09-03T12:51:39;9.00;;;5.75;;
39156;SDS011;24889;42.424;25.604;2022-09-03T12:54:07;11.05;;;8.25;;
39156;SDS011;24889;42.424;25.604;2022-09-03T12:56:40;5.50;;;2.95;;
39156;SDS011;24889;42.424;25.604;2022-09-03T12:59:10;7.65;;;4.95;;
39156;SDS011;24889;42.424;25.604;2022-09-03T13:01:44;7.88;;;4.85;;
39156;SDS011;24889;42.424;25.604;2022-09-03T13:04:28;7.03;;;4.07;;
39156;SDS011;24889;42.424;25.604;2022-09-03T13:07:01;11.00;;;4.97;;
39156;SDS011;24889;42.424;25.604;2022-09-03T13:09:30;5.10;;;4.10;;
39156;SDS011;24889;42.424;25.604;2022-09-03T13:11:59;6.03;;;4.00;;
39156;SDS011;24889;42.424;25.604;2022-09-03T13:14:28;7.32;;;3.80;;
39156;SDS011;24889;42.424;25.604;2022-09-03T13:16:59;5.53;;;3.60;;
39156;SDS011;24889;42.424;25.604;2022-09-03T13:22:32;13.77;;;4.15;;
39156;SDS011;24889;42.424;25.604;2022-09-03T13:25:29;8.70;;;4.10;;
39156;SDS011;24889;42.424;25.604;2022-09-03T13:28:18;6.80;;;4.00;;
39156;SDS011;24889;42.424;25.604;2022-09-03T13:34:00;5.00;;;3.88;;
39156;SDS011;24889;42.424;25.604;2022-09-03T13:36:37;8.90;;;3.88;;
39156;SDS011;24889;42.424;25.604;2022-09-03T13:53:58;6.63;;;3.33;;
39156;SDS011;24889;42.424;25.604;2022-09-03T13:57:37;7.75;;;3.40;;
39156;SDS011;24889;42.424;25.604;2022-09-03T14:02:21;6.13;;;3.92;;
39156;SDS011;24889;42.424;25.604;2022-09-03T14:05:11;5.22;;;3.38;;
39156;SDS011;24889;42.424;25.604;2022-09-03T14:10:51;4.63;;;3.50;;
39156;SDS011;24889;42.424;25.604;2022-09-03T14:16:19;6.78;;;3.78;;
39156;SDS011;24889;42.424;25.604;2022-09-03T14:18:51;7.38;;;3.95;;
39156;SDS011;24889;42.424;25.604;2022-09-03T14:21:26;5.50;;;4.07;;
39156;SDS011;24889;42.424;25.604;2022-09-03T14:24:14;8.98;;;5.22;;
39156;SDS011;24889;42.424;25.604;2022-09-03T14:26:53;8.32;;;4.13;;
39156;SDS011;24889;42.424;25.604;2022-09-03T14:29:27;8.55;;;4.30;;
39156;SDS011;24889;42.424;25.604;2022-09-03T14:32:01;7.65;;;4.22;;
39156;SDS011;24889;42.424;25.604;2022-09-03T14:40:44;9.10;;;5.90;;
39156;SDS011;24889;42.424;25.604;2022-09-03T14:57:21;9.05;;;5.18;;
39156;SDS011;24889;42.424;25.604;2022-09-03T15:00:01;6.28;;;4.97;;
39156;SDS011;24889;42.424;25.604;2022-09-03T15:05:13;6.65;;;4.88;;
39156;SDS011;24889;42.424;25.604;2022-09-03T15:13:05;5.28;;;4.47;;
39156;SDS011;24889;42.424;25.604;2022-09-03T15:18:16;9.95;;;4.97;;
39156;SDS011;24889;42.424;25.604;2022-09-03T15:21:22;7.65;;;5.55;;
39156;SDS011;24889;42.424;25.604;2022-09-03T15:31:46;9.27;;;6.43;;
39156;SDS011;24889;42.424;25.604;2022-09-03T15:36:53;7.63;;;6.40;;
39156;SDS011;24889;42.424;25.604;2022-09-03T15:39:26;11.18;;;8.15;;
39156;SDS011;24889;42.424;25.604;2022-09-03T15:41:56;6.50;;;5.57;;
39156;SDS011;24889;42.424;25.604;2022-09-03T15:44:24;14.35;;;9.55;;
39156;SDS011;24889;42.424;25.604;2022-09-03T15:46:59;15.82;;;12.90;;
39156;SDS011;24889;42.424;25.604;2022-09-03T15:57:56;9.70;;;7.65;;
39156;SDS011;24889;42.424;25.604;2022-09-03T16:03:12;15.82;;;7.50;;
39156;SDS011;24889;42.424;25.604;2022-09-03T16:16:51;30.08;;;7.70;;
39156;SDS011;24889;42.424;25.604;2022-09-03T16:22:25;10.88;;;6.00;;
39156;SDS011;24889;42.424;25.604;2022-09-03T16:25:03;7.53;;;5.65;;
39156;SDS011;24889;42.424;25.604;2022-09-03T16:30:12;8.00;;;6.13;;
39156;SDS011;24889;42.424;25.604;2022-09-03T16:32:55;8.77;;;6.63;;
39156;SDS011;24889;42.424;25.604;2022-09-03T16:35:43;7.40;;;6.43;;
39156;SDS011;24889;42.424;25.604;2022-09-03T16:46:11;12.80;;;7.78;;
39156;SDS011;24889;42.424;25.604;2022-09-03T16:49:09;15.43;;;8.05;;
39156;SDS011;24889;42.424;25.604;2022-09-03T17:05:11;12.13;;;8.27;;
39156;SDS011;24889;42.424;25.604;2022-09-03T17:24:09;8.88;;;7.15;;
39156;SDS011;24889;42.424;25.604;2022-09-03T17:41:24;8.68;;;5.28;;
39156;SDS011;24889;42.424;25.604;2022-09-03T17:49:46;7.18;;;4.80;;
39156;SDS011;24889;42.424;25.604;2022-09-03T18:11:36;8.77;;;5.82;;
39156;SDS011;24889;42.424;25.604;2022-09-03T18:16:46;7.60;;;5.90;;
39156;SDS011;24889;42.424;25.604;2022-09-03T18:22:33;5.85;;;5.13;;
39156;SDS011;24889;42.424;25.604;2022-09-03T18:25:27;6.40;;;5.32;;
39156;SDS011;24889;42.424;25.604;2022-09-03T18:28:16;6.70;;;5.53;;
39156;SDS011;24889;42.424;25.604;2022-09-03T18:31:11;8.82;;;6.65;;
39156;SDS011;24889;42.424;25.604;2022-09-03T18:33:56;6.70;;;5.40;;
39156;SDS011;24889;42.424;25.604;2022-09-03T18:36:40;6.30;;;5.32;;
39156;SDS011;24889;42.424;25.604;2022-09-03T18:39:26;6.05;;;5.05;;
39156;SDS011;24889;42.424;25.604;2022-09-03T18:54:15;5.57;;;4.93;;
39156;SDS011;24889;42.424;25.604;2022-09-03T18:57:37;6.82;;;5.15;;
39156;SDS011;24889;42.424;25.604;2022-09-03T19:00:35;5.82;;;4.82;;
39156;SDS011;24889;42.424;25.604;2022-09-03T19:03:34;7.80;;;5.80;;
39156;SDS011;24889;42.424;25.604;2022-09-03T19:06:37;5.72;;;5.13;;
39156;SDS011;24889;42.424;25.604;2022-09-03T19:09:47;13.32;;;10.30;;
39156;SDS011;24889;42.424;25.604;2022-09-03T19:19:33;9.80;;;6.03;;
39156;SDS011;24889;42.424;25.604;2022-09-03T19:22:33;7.40;;;5.32;;
39156;SDS011;24889;42.424;25.604;2022-09-03T19:25:19;7.25;;;5.35;;
39156;SDS011;24889;42.424;25.604;2022-09-03T19:47:19;6.35;;;5.38;;
39156;SDS011;24889;42.424;25.604;2022-09-03T19:50:28;6.70;;;5.35;;
39156;SDS011;24889;42.424;25.604;2022-09-03T19:53:19;6.63;;;5.15;;
39156;SDS011;24889;42.424;25.604;2022-09-03T19:56:08;6.22;;;5.03;;
39156;SDS011;24889;42.424;25.604;2022-09-03T19:58:59;6.47;;;5.28;;
39156;SDS011;24889;42.424;25.604;2022-09-03T20:01:46;14.13;;;5.65;;
39156;SDS011;24889;42.424;25.604;2022-09-03T20:04:34;6.38;;;5.68;;
39156;SDS011;24889;42.424;25.604;2022-09-03T20:07:21;6.43;;;4.80;;
39156;SDS011;24889;42.424;25.604;2022-09-03T20:10:07;5.33;;;4.77;;
39156;SDS011;24889;42.424;25.604;2022-09-03T20:23:46;5.85;;;5.15;;
39156;SDS011;24889;42.424;25.604;2022-09-03T20:35:03;5.40;;;4.75;;
39156;SDS011;24889;42.424;25.604;2022-09-03T20:37:40;8.38;;;5.70;;
39156;SDS011;24889;42.424;25.604;2022-09-03T20:40:21;6.25;;;5.03;;
39156;SDS011;24889;42.424;25.604;2022-09-03T20:49:12;8.18;;;5.32;;
39156;SDS011;24889;42.424;25.604;2022-09-03T20:51:35;5.77;;;4.80;;
39156;SDS011;24889;42.424;25.604;2022-09-03T20:54:16;9.27;;;5.20;;
39156;SDS011;24889;42.424;25.604;2022-09-03T20:59:40;5.47;;;4.40;;
39156;SDS011;24889;42.424;25.604;2022-09-03T21:13:02;11.27;;;6.05;;
39156;SDS011;24889;42.424;25.604;2022-09-03T21:20:54;8.60;;;5.55;;
39156;SDS011;24889;42.424;25.604;2022-09-03T21:23:42;8.52;;;5.97;;
39156;SDS011;24889;42.424;25.604;2022-09-03T21:26:31;6.95;;;5.60;;
39156;SDS011;24889;42.424;25.604;2022-09-03T21:29:08;8.20;;;5.68;;
39156;SDS011;24889;42.424;25.604;2022-09-03T21:31:46;9.25;;;6.15;;
39156;SDS011;24889;42.424;25.604;2022-09-03T21:34:40;8.30;;;5.93;;
39156;SDS011;24889;42.424;25.604;2022-09-03T21:37:12;8.68;;;5.63;;
39156;SDS011;24889;42.424;25.604;2022-09-03T21:39:45;6.35;;;5.13;;
39156;SDS011;24889;42.424;25.604;2022-09-03T21:42:17;8.30;;;6.37;;
39156;SDS011;24889;42.424;25.604;2022-09-03T21:47:32;7.32;;;5.68;;
39156;SDS011;24889;42.424;25.604;2022-09-03T22:00:29;11.77;;;6.32;;
39156;SDS011;24889;42.424;25.604;2022-09-03T22:02:56;8.35;;;6.40;;
39156;SDS011;24889;42.424;25.604;2022-09-03T22:05:24;11.77;;;5.57;;
39156;SDS011;24889;42.424;25.604;2022-09-03T22:10:54;7.38;;;5.57;;
39156;SDS011;24889;42.424;25.604;2022-09-03T22:13:48;10.32;;;6.20;;